<?xml version="1.0" encoding="UTF-8"?>
<gpx xmlns="http://www.topografix.com/GPX/1/1" xmlns:xsi="http://www.w3.org/2001/XMLSchema-instance" version="1.1" xsi:schemaLocation="http://www.topografix.com/GPX/1/1 http://www.topografix.com/GPX/1/1/gpx.xsd">
  <metadata>
    <name>East Coast Triathlon Festival 2026</name>
  </metadata>
  <trk>
    <name>East Coast Triathlon Festival 2026</name>
    <trkseg>
      <trkpt lat="37.662464" lon="-77.577965">
        <ele>79.830124</ele>
        <time>2026-05-03T14:07:30.000Z</time>
      </trkpt>
      <trkpt lat="37.66253" lon="-77.578133">
        <ele>79.83013</ele>
        <time>2026-05-03T14:07:32.000Z</time>
      </trkpt>
      <trkpt lat="37.662579" lon="-77.578299">
        <ele>79.830136</ele>
        <time>2026-05-03T14:07:34.000Z</time>
      </trkpt>
      <trkpt lat="37.663815" lon="-77.577733">
        <ele>79.761104</ele>
        <time>2026-05-03T14:07:49.000Z</time>
      </trkpt>
      <trkpt lat="37.664305" lon="-77.577243">
        <ele>79.700812</ele>
        <time>2026-05-03T14:07:56.000Z</time>
      </trkpt>
      <trkpt lat="37.664963" lon="-77.576746">
        <ele>79.190836</ele>
        <time>2026-05-03T14:08:05.000Z</time>
      </trkpt>
      <trkpt lat="37.665124" lon="-77.576645">
        <ele>78.880873</ele>
        <time>2026-05-03T14:08:07.000Z</time>
      </trkpt>
      <trkpt lat="37.664931" lon="-77.576189">
        <ele>78.234432</ele>
        <time>2026-05-03T14:08:12.000Z</time>
      </trkpt>
      <trkpt lat="37.664811" lon="-77.575974">
        <ele>77.909478</ele>
        <time>2026-05-03T14:08:14.000Z</time>
      </trkpt>
      <trkpt lat="37.664634" lon="-77.575731">
        <ele>77.509833</ele>
        <time>2026-05-03T14:08:17.000Z</time>
      </trkpt>
      <trkpt lat="37.664272" lon="-77.575348">
        <ele>76.782203</ele>
        <time>2026-05-03T14:08:22.000Z</time>
      </trkpt>
      <trkpt lat="37.664147" lon="-77.575249">
        <ele>76.596546</ele>
        <time>2026-05-03T14:08:24.000Z</time>
      </trkpt>
      <trkpt lat="37.66409" lon="-77.575186">
        <ele>76.501114</ele>
        <time>2026-05-03T14:08:25.000Z</time>
      </trkpt>
      <trkpt lat="37.663938" lon="-77.575052">
        <ele>76.285771</ele>
        <time>2026-05-03T14:08:27.000Z</time>
      </trkpt>
      <trkpt lat="37.66381" lon="-77.574887">
        <ele>76.0671</ele>
        <time>2026-05-03T14:08:29.000Z</time>
      </trkpt>
      <trkpt lat="37.663673" lon="-77.574638">
        <ele>75.77807</ele>
        <time>2026-05-03T14:08:32.000Z</time>
      </trkpt>
      <trkpt lat="37.663447" lon="-77.574198">
        <ele>75.270288</ele>
        <time>2026-05-03T14:08:37.000Z</time>
      </trkpt>
      <trkpt lat="37.662808" lon="-77.574697">
        <ele>74.477721</ele>
        <time>2026-05-03T14:08:45.000Z</time>
      </trkpt>
      <trkpt lat="37.662445" lon="-77.574874">
        <ele>74.202566</ele>
        <time>2026-05-03T14:08:49.000Z</time>
      </trkpt>
      <trkpt lat="37.662184" lon="-77.574968">
        <ele>74.002373</ele>
        <time>2026-05-03T14:08:52.000Z</time>
      </trkpt>
      <trkpt lat="37.661868" lon="-77.575033">
        <ele>73.772288</ele>
        <time>2026-05-03T14:08:56.000Z</time>
      </trkpt>
      <trkpt lat="37.661494" lon="-77.575056">
        <ele>73.507379</ele>
        <time>2026-05-03T14:09:00.000Z</time>
      </trkpt>
      <trkpt lat="37.661212" lon="-77.575014">
        <ele>73.501483</ele>
        <time>2026-05-03T14:09:03.000Z</time>
      </trkpt>
      <trkpt lat="37.660953" lon="-77.57497">
        <ele>73.888535</ele>
        <time>2026-05-03T14:09:06.000Z</time>
      </trkpt>
      <trkpt lat="37.660603" lon="-77.574828">
        <ele>74.444909</ele>
        <time>2026-05-03T14:09:10.000Z</time>
      </trkpt>
      <trkpt lat="37.660471" lon="-77.574771">
        <ele>74.644614</ele>
        <time>2026-05-03T14:09:12.000Z</time>
      </trkpt>
      <trkpt lat="37.66" lon="-77.574656">
        <ele>75.34568</ele>
        <time>2026-05-03T14:09:17.000Z</time>
      </trkpt>
      <trkpt lat="37.659957" lon="-77.574652">
        <ele>75.409678</ele>
        <time>2026-05-03T14:09:17.000Z</time>
      </trkpt>
      <trkpt lat="37.659907" lon="-77.574655">
        <ele>75.505126</ele>
        <time>2026-05-03T14:09:18.000Z</time>
      </trkpt>
      <trkpt lat="37.65964" lon="-77.574656">
        <ele>75.90672</ele>
        <time>2026-05-03T14:09:21.000Z</time>
      </trkpt>
      <trkpt lat="37.659429" lon="-77.574671">
        <ele>76.063844</ele>
        <time>2026-05-03T14:09:23.000Z</time>
      </trkpt>
      <trkpt lat="37.659254" lon="-77.574721">
        <ele>76.092043</ele>
        <time>2026-05-03T14:09:25.000Z</time>
      </trkpt>
      <trkpt lat="37.658883" lon="-77.574861">
        <ele>76.151327</ele>
        <time>2026-05-03T14:09:29.000Z</time>
      </trkpt>
      <trkpt lat="37.658505" lon="-77.575113">
        <ele>76.219097</ele>
        <time>2026-05-03T14:09:34.000Z</time>
      </trkpt>
      <trkpt lat="37.658194" lon="-77.575421">
        <ele>76.279588</ele>
        <time>2026-05-03T14:09:38.000Z</time>
      </trkpt>
      <trkpt lat="37.658114" lon="-77.575528">
        <ele>76.296305</ele>
        <time>2026-05-03T14:09:39.000Z</time>
      </trkpt>
      <trkpt lat="37.657859" lon="-77.575872">
        <ele>76.357841</ele>
        <time>2026-05-03T14:09:43.000Z</time>
      </trkpt>
      <trkpt lat="37.657778" lon="-77.576063">
        <ele>76.389237</ele>
        <time>2026-05-03T14:09:45.000Z</time>
      </trkpt>
      <trkpt lat="37.657683" lon="-77.576192">
        <ele>76.413332</ele>
        <time>2026-05-03T14:09:47.000Z</time>
      </trkpt>
      <trkpt lat="37.657321" lon="-77.576625">
        <ele>76.501725</ele>
        <time>2026-05-03T14:09:53.000Z</time>
      </trkpt>
      <trkpt lat="37.657102" lon="-77.576821">
        <ele>76.549045</ele>
        <time>2026-05-03T14:09:56.000Z</time>
      </trkpt>
      <trkpt lat="37.656748" lon="-77.577054">
        <ele>76.618401</ele>
        <time>2026-05-03T14:10:00.000Z</time>
      </trkpt>
      <trkpt lat="37.656462" lon="-77.577167">
        <ele>76.873931</ele>
        <time>2026-05-03T14:10:03.000Z</time>
      </trkpt>
      <trkpt lat="37.65596" lon="-77.577331">
        <ele>77.559401</ele>
        <time>2026-05-03T14:10:09.000Z</time>
      </trkpt>
      <trkpt lat="37.655628" lon="-77.577526">
        <ele>78.068872</ele>
        <time>2026-05-03T14:10:13.000Z</time>
      </trkpt>
      <trkpt lat="37.655224" lon="-77.577872">
        <ele>78.72417</ele>
        <time>2026-05-03T14:10:18.000Z</time>
      </trkpt>
      <trkpt lat="37.65475" lon="-77.578478">
        <ele>79.205957</ele>
        <time>2026-05-03T14:10:25.000Z</time>
      </trkpt>
      <trkpt lat="37.653971" lon="-77.579508">
        <ele>79.544793</ele>
        <time>2026-05-03T14:10:38.000Z</time>
      </trkpt>
      <trkpt lat="37.653563" lon="-77.580271">
        <ele>79.5389</ele>
        <time>2026-05-03T14:10:46.000Z</time>
      </trkpt>
      <trkpt lat="37.653301" lon="-77.580658">
        <ele>79.465847</ele>
        <time>2026-05-03T14:10:50.000Z</time>
      </trkpt>
      <trkpt lat="37.65302" lon="-77.580956">
        <ele>79.400454</ele>
        <time>2026-05-03T14:10:54.000Z</time>
      </trkpt>
      <trkpt lat="37.652842" lon="-77.581106">
        <ele>79.35878</ele>
        <time>2026-05-03T14:10:56.000Z</time>
      </trkpt>
      <trkpt lat="37.652528" lon="-77.581277">
        <ele>79.302369</ele>
        <time>2026-05-03T14:11:00.000Z</time>
      </trkpt>
      <trkpt lat="37.65212" lon="-77.581423">
        <ele>79.508743</ele>
        <time>2026-05-03T14:11:05.000Z</time>
      </trkpt>
      <trkpt lat="37.651533" lon="-77.581474">
        <ele>79.797142</ele>
        <time>2026-05-03T14:11:12.000Z</time>
      </trkpt>
      <trkpt lat="37.651263" lon="-77.581509">
        <ele>79.936173</ele>
        <time>2026-05-03T14:11:15.000Z</time>
      </trkpt>
      <trkpt lat="37.651161" lon="-77.581555">
        <ele>79.988584</ele>
        <time>2026-05-03T14:11:16.000Z</time>
      </trkpt>
      <trkpt lat="37.651197" lon="-77.581771">
        <ele>80.074676</ele>
        <time>2026-05-03T14:11:18.000Z</time>
      </trkpt>
      <trkpt lat="37.651249" lon="-77.582121">
        <ele>80.219954</ele>
        <time>2026-05-03T14:11:21.000Z</time>
      </trkpt>
      <trkpt lat="37.651295" lon="-77.582535">
        <ele>80.41365</ele>
        <time>2026-05-03T14:11:25.000Z</time>
      </trkpt>
      <trkpt lat="37.651284" lon="-77.58278">
        <ele>80.52783</ele>
        <time>2026-05-03T14:11:27.000Z</time>
      </trkpt>
      <trkpt lat="37.651195" lon="-77.58327">
        <ele>80.760989</ele>
        <time>2026-05-03T14:11:31.000Z</time>
      </trkpt>
      <trkpt lat="37.651059" lon="-77.583671">
        <ele>80.963578</ele>
        <time>2026-05-03T14:11:35.000Z</time>
      </trkpt>
      <trkpt lat="37.650998" lon="-77.583906">
        <ele>81.072183</ele>
        <time>2026-05-03T14:11:37.000Z</time>
      </trkpt>
      <trkpt lat="37.650985" lon="-77.584055">
        <ele>81.148011</ele>
        <time>2026-05-03T14:11:38.000Z</time>
      </trkpt>
      <trkpt lat="37.651004" lon="-77.584318">
        <ele>81.187321</ele>
        <time>2026-05-03T14:11:40.000Z</time>
      </trkpt>
      <trkpt lat="37.651067" lon="-77.584593">
        <ele>80.954278</ele>
        <time>2026-05-03T14:11:43.000Z</time>
      </trkpt>
      <trkpt lat="37.651163" lon="-77.584799">
        <ele>80.758776</ele>
        <time>2026-05-03T14:11:45.000Z</time>
      </trkpt>
      <trkpt lat="37.651338" lon="-77.585063">
        <ele>80.486168</ele>
        <time>2026-05-03T14:11:48.000Z</time>
      </trkpt>
      <trkpt lat="37.6514" lon="-77.585232">
        <ele>80.333262</ele>
        <time>2026-05-03T14:11:50.000Z</time>
      </trkpt>
      <trkpt lat="37.651411" lon="-77.585391">
        <ele>80.203567</ele>
        <time>2026-05-03T14:11:51.000Z</time>
      </trkpt>
      <trkpt lat="37.651617" lon="-77.585376">
        <ele>79.995466</ele>
        <time>2026-05-03T14:11:53.000Z</time>
      </trkpt>
      <trkpt lat="37.651774" lon="-77.58536">
        <ele>79.82517</ele>
        <time>2026-05-03T14:11:55.000Z</time>
      </trkpt>
      <trkpt lat="37.652102" lon="-77.585289">
        <ele>79.496167</ele>
        <time>2026-05-03T14:11:59.000Z</time>
      </trkpt>
      <trkpt lat="37.652715" lon="-77.585023">
        <ele>79.392167</ele>
        <time>2026-05-03T14:12:06.000Z</time>
      </trkpt>
      <trkpt lat="37.653223" lon="-77.584799">
        <ele>79.375028</ele>
        <time>2026-05-03T14:12:12.000Z</time>
      </trkpt>
      <trkpt lat="37.653249" lon="-77.584785">
        <ele>79.374011</ele>
        <time>2026-05-03T14:12:12.000Z</time>
      </trkpt>
      <trkpt lat="37.654081" lon="-77.584405">
        <ele>79.502166</ele>
        <time>2026-05-03T14:12:22.000Z</time>
      </trkpt>
      <trkpt lat="37.6543" lon="-77.58432">
        <ele>79.667152</ele>
        <time>2026-05-03T14:12:25.000Z</time>
      </trkpt>
      <trkpt lat="37.654517" lon="-77.584287">
        <ele>79.822026</ele>
        <time>2026-05-03T14:12:27.000Z</time>
      </trkpt>
      <trkpt lat="37.654665" lon="-77.584307">
        <ele>79.921584</ele>
        <time>2026-05-03T14:12:29.000Z</time>
      </trkpt>
      <trkpt lat="37.654839" lon="-77.584385">
        <ele>80.042639</ele>
        <time>2026-05-03T14:12:31.000Z</time>
      </trkpt>
      <trkpt lat="37.654991" lon="-77.584516">
        <ele>80.177003</ele>
        <time>2026-05-03T14:12:33.000Z</time>
      </trkpt>
      <trkpt lat="37.655129" lon="-77.584702">
        <ele>80.316749</ele>
        <time>2026-05-03T14:12:35.000Z</time>
      </trkpt>
      <trkpt lat="37.655325" lon="-77.584976">
        <ele>80.515039</ele>
        <time>2026-05-03T14:12:38.000Z</time>
      </trkpt>
      <trkpt lat="37.655405" lon="-77.585009">
        <ele>80.583439</ele>
        <time>2026-05-03T14:12:39.000Z</time>
      </trkpt>
      <trkpt lat="37.655553" lon="-77.585017">
        <ele>80.592998</ele>
        <time>2026-05-03T14:12:41.000Z</time>
      </trkpt>
      <trkpt lat="37.655688" lon="-77.584933">
        <ele>80.583279</ele>
        <time>2026-05-03T14:12:43.000Z</time>
      </trkpt>
      <trkpt lat="37.656106" lon="-77.584478">
        <ele>80.549572</ele>
        <time>2026-05-03T14:12:49.000Z</time>
      </trkpt>
      <trkpt lat="37.656711" lon="-77.583829">
        <ele>80.500471</ele>
        <time>2026-05-03T14:12:58.000Z</time>
      </trkpt>
      <trkpt lat="37.65679" lon="-77.58374">
        <ele>80.493705</ele>
        <time>2026-05-03T14:12:59.000Z</time>
      </trkpt>
      <trkpt lat="37.656783" lon="-77.58373">
        <ele>80.493466</ele>
        <time>2026-05-03T14:12:59.000Z</time>
      </trkpt>
      <trkpt lat="37.656892" lon="-77.583621">
        <ele>80.448384</ele>
        <time>2026-05-03T14:13:01.000Z</time>
      </trkpt>
      <trkpt lat="37.657058" lon="-77.583497">
        <ele>80.32857</ele>
        <time>2026-05-03T14:13:03.000Z</time>
      </trkpt>
      <trkpt lat="37.657131" lon="-77.583465">
        <ele>80.273358</ele>
        <time>2026-05-03T14:13:04.000Z</time>
      </trkpt>
      <trkpt lat="37.657565" lon="-77.5835">
        <ele>80.005126</ele>
        <time>2026-05-03T14:13:09.000Z</time>
      </trkpt>
      <trkpt lat="37.657683" lon="-77.583405">
        <ele>79.911822</ele>
        <time>2026-05-03T14:13:11.000Z</time>
      </trkpt>
      <trkpt lat="37.657769" lon="-77.583287">
        <ele>79.831999</ele>
        <time>2026-05-03T14:13:12.000Z</time>
      </trkpt>
      <trkpt lat="37.657778" lon="-77.583205">
        <ele>79.787676</ele>
        <time>2026-05-03T14:13:13.000Z</time>
      </trkpt>
      <trkpt lat="37.657809" lon="-77.582845">
        <ele>79.610307</ele>
        <time>2026-05-03T14:13:16.000Z</time>
      </trkpt>
      <trkpt lat="37.657833" lon="-77.58251">
        <ele>79.437677</ele>
        <time>2026-05-03T14:13:19.000Z</time>
      </trkpt>
      <trkpt lat="37.657867" lon="-77.581896">
        <ele>78.94485</ele>
        <time>2026-05-03T14:13:24.000Z</time>
      </trkpt>
      <trkpt lat="37.657883" lon="-77.581483">
        <ele>78.539522</ele>
        <time>2026-05-03T14:13:28.000Z</time>
      </trkpt>
      <trkpt lat="37.657932" lon="-77.580767">
        <ele>77.861021</ele>
        <time>2026-05-03T14:13:34.000Z</time>
      </trkpt>
      <trkpt lat="37.657896" lon="-77.580611">
        <ele>77.710199</ele>
        <time>2026-05-03T14:13:35.000Z</time>
      </trkpt>
      <trkpt lat="37.657831" lon="-77.580468">
        <ele>77.553843</ele>
        <time>2026-05-03T14:13:36.000Z</time>
      </trkpt>
      <trkpt lat="37.657545" lon="-77.579965">
        <ele>76.997332</ele>
        <time>2026-05-03T14:13:41.000Z</time>
      </trkpt>
      <trkpt lat="37.657488" lon="-77.579987">
        <ele>76.930306</ele>
        <time>2026-05-03T14:13:42.000Z</time>
      </trkpt>
      <trkpt lat="37.6574" lon="-77.579929">
        <ele>76.83315</ele>
        <time>2026-05-03T14:13:43.000Z</time>
      </trkpt>
      <trkpt lat="37.657409" lon="-77.579812">
        <ele>76.738414</ele>
        <time>2026-05-03T14:13:44.000Z</time>
      </trkpt>
      <trkpt lat="37.657488" lon="-77.57975">
        <ele>76.643625</ele>
        <time>2026-05-03T14:13:45.000Z</time>
      </trkpt>
      <trkpt lat="37.657748" lon="-77.57941">
        <ele>76.267034</ele>
        <time>2026-05-03T14:13:49.000Z</time>
      </trkpt>
      <trkpt lat="37.657807" lon="-77.579269">
        <ele>76.147564</ele>
        <time>2026-05-03T14:13:50.000Z</time>
      </trkpt>
      <trkpt lat="37.657882" lon="-77.578948">
        <ele>75.871671</ele>
        <time>2026-05-03T14:13:53.000Z</time>
      </trkpt>
      <trkpt lat="37.657945" lon="-77.578803">
        <ele>75.73859</ele>
        <time>2026-05-03T14:13:54.000Z</time>
      </trkpt>
      <trkpt lat="37.657864" lon="-77.578472">
        <ele>75.463634</ele>
        <time>2026-05-03T14:13:57.000Z</time>
      </trkpt>
      <trkpt lat="37.657671" lon="-77.578037">
        <ele>75.256822</ele>
        <time>2026-05-03T14:14:01.000Z</time>
      </trkpt>
      <trkpt lat="37.65762" lon="-77.57793">
        <ele>75.2151</ele>
        <time>2026-05-03T14:14:02.000Z</time>
      </trkpt>
      <trkpt lat="37.65747" lon="-77.577628">
        <ele>75.107959</ele>
        <time>2026-05-03T14:14:05.000Z</time>
      </trkpt>
      <trkpt lat="37.657475" lon="-77.577607">
        <ele>75.104027</ele>
        <time>2026-05-03T14:14:05.000Z</time>
      </trkpt>
      <trkpt lat="37.657432" lon="-77.57754">
        <ele>75.079805</ele>
        <time>2026-05-03T14:14:06.000Z</time>
      </trkpt>
      <trkpt lat="37.65713" lon="-77.576891">
        <ele>74.844897</ele>
        <time>2026-05-03T14:14:13.000Z</time>
      </trkpt>
      <trkpt lat="37.657433" lon="-77.577541">
        <ele>74.705498</ele>
        <time>2026-05-03T14:14:20.000Z</time>
      </trkpt>
      <trkpt lat="37.657464" lon="-77.577607">
        <ele>74.719584</ele>
        <time>2026-05-03T14:14:21.000Z</time>
      </trkpt>
      <trkpt lat="37.657475" lon="-77.577624">
        <ele>74.721895</ele>
        <time>2026-05-03T14:14:21.000Z</time>
      </trkpt>
      <trkpt lat="37.657609" lon="-77.577926">
        <ele>74.784215</ele>
        <time>2026-05-03T14:14:24.000Z</time>
      </trkpt>
      <trkpt lat="37.657675" lon="-77.578043">
        <ele>74.808512</ele>
        <time>2026-05-03T14:14:25.000Z</time>
      </trkpt>
      <trkpt lat="37.657863" lon="-77.578467">
        <ele>74.898205</ele>
        <time>2026-05-03T14:14:29.000Z</time>
      </trkpt>
      <trkpt lat="37.657943" lon="-77.578797">
        <ele>74.960863</ele>
        <time>2026-05-03T14:14:32.000Z</time>
      </trkpt>
      <trkpt lat="37.658212" lon="-77.578886">
        <ele>75.025443</ele>
        <time>2026-05-03T14:14:35.000Z</time>
      </trkpt>
      <trkpt lat="37.658324" lon="-77.578959">
        <ele>75.050133</ele>
        <time>2026-05-03T14:14:36.000Z</time>
      </trkpt>
      <trkpt lat="37.658385" lon="-77.579039">
        <ele>75.073509</ele>
        <time>2026-05-03T14:14:37.000Z</time>
      </trkpt>
      <trkpt lat="37.658611" lon="-77.57914">
        <ele>75.100809</ele>
        <time>2026-05-03T14:14:40.000Z</time>
      </trkpt>
      <trkpt lat="37.658854" lon="-77.579255">
        <ele>75.12741</ele>
        <time>2026-05-03T14:14:43.000Z</time>
      </trkpt>
      <trkpt lat="37.659203" lon="-77.579296">
        <ele>75.160909</ele>
        <time>2026-05-03T14:14:47.000Z</time>
      </trkpt>
      <trkpt lat="37.659331" lon="-77.579247">
        <ele>75.174499</ele>
        <time>2026-05-03T14:14:48.000Z</time>
      </trkpt>
      <trkpt lat="37.659648" lon="-77.57906">
        <ele>75.210035</ele>
        <time>2026-05-03T14:14:52.000Z</time>
      </trkpt>
      <trkpt lat="37.660033" lon="-77.57885">
        <ele>75.251599</ele>
        <time>2026-05-03T14:14:57.000Z</time>
      </trkpt>
      <trkpt lat="37.660309" lon="-77.578707">
        <ele>75.557624</ele>
        <time>2026-05-03T14:15:00.000Z</time>
      </trkpt>
      <trkpt lat="37.660529" lon="-77.578592">
        <ele>75.924329</ele>
        <time>2026-05-03T14:15:03.000Z</time>
      </trkpt>
      <trkpt lat="37.660697" lon="-77.578607">
        <ele>76.177223</ele>
        <time>2026-05-03T14:15:05.000Z</time>
      </trkpt>
      <trkpt lat="37.661088" lon="-77.578711">
        <ele>76.768142</ele>
        <time>2026-05-03T14:15:09.000Z</time>
      </trkpt>
      <trkpt lat="37.661271" lon="-77.578765">
        <ele>77.044147</ele>
        <time>2026-05-03T14:15:11.000Z</time>
      </trkpt>
      <trkpt lat="37.661534" lon="-77.578724">
        <ele>77.437667</ele>
        <time>2026-05-03T14:15:14.000Z</time>
      </trkpt>
      <trkpt lat="37.661739" lon="-77.578671">
        <ele>77.737286</ele>
        <time>2026-05-03T14:15:16.000Z</time>
      </trkpt>
      <trkpt lat="37.662567" lon="-77.578297">
        <ele>78.871821</ele>
        <time>2026-05-03T14:15:26.000Z</time>
      </trkpt>
      <trkpt lat="37.663815" lon="-77.577731">
        <ele>79.975668</ele>
        <time>2026-05-03T14:15:41.000Z</time>
      </trkpt>
      <trkpt lat="37.664291" lon="-77.577255">
        <ele>79.583135</ele>
        <time>2026-05-03T14:15:48.000Z</time>
      </trkpt>
      <trkpt lat="37.664304" lon="-77.577237">
        <ele>79.577696</ele>
        <time>2026-05-03T14:15:48.000Z</time>
      </trkpt>
      <trkpt lat="37.664955" lon="-77.576737">
        <ele>79.083992</ele>
        <time>2026-05-03T14:15:56.000Z</time>
      </trkpt>
      <trkpt lat="37.665133" lon="-77.576632">
        <ele>78.903659</ele>
        <time>2026-05-03T14:15:58.000Z</time>
      </trkpt>
      <trkpt lat="37.664928" lon="-77.576186">
        <ele>78.295709</ele>
        <time>2026-05-03T14:16:03.000Z</time>
      </trkpt>
      <trkpt lat="37.664799" lon="-77.575976">
        <ele>77.990074</ele>
        <time>2026-05-03T14:16:05.000Z</time>
      </trkpt>
      <trkpt lat="37.664635" lon="-77.575722">
        <ele>77.614231</ele>
        <time>2026-05-03T14:16:08.000Z</time>
      </trkpt>
      <trkpt lat="37.664272" lon="-77.575358">
        <ele>76.916124</ele>
        <time>2026-05-03T14:16:13.000Z</time>
      </trkpt>
      <trkpt lat="37.664156" lon="-77.575235">
        <ele>76.689502</ele>
        <time>2026-05-03T14:16:15.000Z</time>
      </trkpt>
      <trkpt lat="37.664076" lon="-77.575172">
        <ele>76.573039</ele>
        <time>2026-05-03T14:16:16.000Z</time>
      </trkpt>
      <trkpt lat="37.663939" lon="-77.575038">
        <ele>76.314632</ele>
        <time>2026-05-03T14:16:18.000Z</time>
      </trkpt>
      <trkpt lat="37.663811" lon="-77.574874">
        <ele>76.0841</ele>
        <time>2026-05-03T14:16:20.000Z</time>
      </trkpt>
      <trkpt lat="37.663664" lon="-77.574654">
        <ele>75.779412</ele>
        <time>2026-05-03T14:16:23.000Z</time>
      </trkpt>
      <trkpt lat="37.663448" lon="-77.57419">
        <ele>75.244094</ele>
        <time>2026-05-03T14:16:28.000Z</time>
      </trkpt>
      <trkpt lat="37.662798" lon="-77.574689">
        <ele>74.27798</ele>
        <time>2026-05-03T14:16:36.000Z</time>
      </trkpt>
      <trkpt lat="37.662453" lon="-77.574881">
        <ele>74.021615</ele>
        <time>2026-05-03T14:16:40.000Z</time>
      </trkpt>
      <trkpt lat="37.662183" lon="-77.574963">
        <ele>73.98388</ele>
        <time>2026-05-03T14:16:43.000Z</time>
      </trkpt>
      <trkpt lat="37.661853" lon="-77.575042">
        <ele>73.940498</ele>
        <time>2026-05-03T14:16:47.000Z</time>
      </trkpt>
      <trkpt lat="37.661482" lon="-77.575049">
        <ele>73.890565</ele>
        <time>2026-05-03T14:16:51.000Z</time>
      </trkpt>
      <trkpt lat="37.661219" lon="-77.575027">
        <ele>73.853413</ele>
        <time>2026-05-03T14:16:54.000Z</time>
      </trkpt>
      <trkpt lat="37.660956" lon="-77.574959">
        <ele>73.818409</ele>
        <time>2026-05-03T14:16:57.000Z</time>
      </trkpt>
      <trkpt lat="37.660606" lon="-77.574828">
        <ele>74.242155</ele>
        <time>2026-05-03T14:17:01.000Z</time>
      </trkpt>
      <trkpt lat="37.660477" lon="-77.574776">
        <ele>74.442032</ele>
        <time>2026-05-03T14:17:03.000Z</time>
      </trkpt>
      <trkpt lat="37.660016" lon="-77.574646">
        <ele>75.143666</ele>
        <time>2026-05-03T14:17:08.000Z</time>
      </trkpt>
      <trkpt lat="37.659958" lon="-77.574647">
        <ele>75.207737</ele>
        <time>2026-05-03T14:17:09.000Z</time>
      </trkpt>
      <trkpt lat="37.659906" lon="-77.574652">
        <ele>75.303269</ele>
        <time>2026-05-03T14:17:10.000Z</time>
      </trkpt>
      <trkpt lat="37.659635" lon="-77.574647">
        <ele>75.705201</ele>
        <time>2026-05-03T14:17:13.000Z</time>
      </trkpt>
      <trkpt lat="37.659431" lon="-77.574682">
        <ele>76.002072</ele>
        <time>2026-05-03T14:17:15.000Z</time>
      </trkpt>
      <trkpt lat="37.65926" lon="-77.57472">
        <ele>76.272671</ele>
        <time>2026-05-03T14:17:17.000Z</time>
      </trkpt>
      <trkpt lat="37.658894" lon="-77.574861">
        <ele>76.434238</ele>
        <time>2026-05-03T14:17:21.000Z</time>
      </trkpt>
      <trkpt lat="37.658514" lon="-77.575124">
        <ele>76.341905</ele>
        <time>2026-05-03T14:17:26.000Z</time>
      </trkpt>
      <trkpt lat="37.658188" lon="-77.57542">
        <ele>76.259448</ele>
        <time>2026-05-03T14:17:30.000Z</time>
      </trkpt>
      <trkpt lat="37.658115" lon="-77.575528">
        <ele>76.236661</ele>
        <time>2026-05-03T14:17:31.000Z</time>
      </trkpt>
      <trkpt lat="37.657864" lon="-77.575868">
        <ele>76.157544</ele>
        <time>2026-05-03T14:17:35.000Z</time>
      </trkpt>
      <trkpt lat="37.657782" lon="-77.576075">
        <ele>76.119541</ele>
        <time>2026-05-03T14:17:37.000Z</time>
      </trkpt>
      <trkpt lat="37.657686" lon="-77.576202">
        <ele>76.147034</ele>
        <time>2026-05-03T14:17:39.000Z</time>
      </trkpt>
      <trkpt lat="37.657316" lon="-77.576628">
        <ele>76.467373</ele>
        <time>2026-05-03T14:17:45.000Z</time>
      </trkpt>
      <trkpt lat="37.657089" lon="-77.576836">
        <ele>76.638886</ele>
        <time>2026-05-03T14:17:48.000Z</time>
      </trkpt>
      <trkpt lat="37.656734" lon="-77.577051">
        <ele>76.890301</ele>
        <time>2026-05-03T14:17:52.000Z</time>
      </trkpt>
      <trkpt lat="37.656449" lon="-77.577156">
        <ele>77.08068</ele>
        <time>2026-05-03T14:17:55.000Z</time>
      </trkpt>
      <trkpt lat="37.655957" lon="-77.577328">
        <ele>77.540106</ele>
        <time>2026-05-03T14:18:01.000Z</time>
      </trkpt>
      <trkpt lat="37.655632" lon="-77.577535">
        <ele>77.989017</ele>
        <time>2026-05-03T14:18:05.000Z</time>
      </trkpt>
      <trkpt lat="37.65523" lon="-77.577864">
        <ele>78.566393</ele>
        <time>2026-05-03T14:18:10.000Z</time>
      </trkpt>
      <trkpt lat="37.654749" lon="-77.578466">
        <ele>79.375771</ele>
        <time>2026-05-03T14:18:18.000Z</time>
      </trkpt>
      <trkpt lat="37.653967" lon="-77.579507">
        <ele>79.484133</ele>
        <time>2026-05-03T14:18:31.000Z</time>
      </trkpt>
      <trkpt lat="37.653573" lon="-77.580281">
        <ele>79.536144</ele>
        <time>2026-05-03T14:18:39.000Z</time>
      </trkpt>
      <trkpt lat="37.653305" lon="-77.580664">
        <ele>79.489616</ele>
        <time>2026-05-03T14:18:43.000Z</time>
      </trkpt>
      <trkpt lat="37.653029" lon="-77.580962">
        <ele>79.44798</ele>
        <time>2026-05-03T14:18:47.000Z</time>
      </trkpt>
      <trkpt lat="37.652836" lon="-77.581102">
        <ele>79.421449</ele>
        <time>2026-05-03T14:18:49.000Z</time>
      </trkpt>
      <trkpt lat="37.652521" lon="-77.581282">
        <ele>79.382157</ele>
        <time>2026-05-03T14:18:53.000Z</time>
      </trkpt>
      <trkpt lat="37.652125" lon="-77.581433">
        <ele>79.333951</ele>
        <time>2026-05-03T14:18:58.000Z</time>
      </trkpt>
      <trkpt lat="37.651533" lon="-77.581482">
        <ele>79.752142</ele>
        <time>2026-05-03T14:19:05.000Z</time>
      </trkpt>
      <trkpt lat="37.651254" lon="-77.581517">
        <ele>79.955443</ele>
        <time>2026-05-03T14:19:08.000Z</time>
      </trkpt>
      <trkpt lat="37.651161" lon="-77.581544">
        <ele>80.032102</ele>
        <time>2026-05-03T14:19:09.000Z</time>
      </trkpt>
      <trkpt lat="37.651192" lon="-77.581771">
        <ele>80.157998</ele>
        <time>2026-05-03T14:19:11.000Z</time>
      </trkpt>
      <trkpt lat="37.651243" lon="-77.582114">
        <ele>80.363517</ele>
        <time>2026-05-03T14:19:14.000Z</time>
      </trkpt>
      <trkpt lat="37.651285" lon="-77.582531">
        <ele>80.603938</ele>
        <time>2026-05-03T14:19:18.000Z</time>
      </trkpt>
      <trkpt lat="37.651279" lon="-77.582767">
        <ele>80.662005</ele>
        <time>2026-05-03T14:19:20.000Z</time>
      </trkpt>
      <trkpt lat="37.651194" lon="-77.583268">
        <ele>80.732303</ele>
        <time>2026-05-03T14:19:25.000Z</time>
      </trkpt>
      <trkpt lat="37.651058" lon="-77.583674">
        <ele>80.793393</ele>
        <time>2026-05-03T14:19:29.000Z</time>
      </trkpt>
      <trkpt lat="37.651011" lon="-77.583903">
        <ele>80.826149</ele>
        <time>2026-05-03T14:19:31.000Z</time>
      </trkpt>
      <trkpt lat="37.650989" lon="-77.584062">
        <ele>80.849015</ele>
        <time>2026-05-03T14:19:32.000Z</time>
      </trkpt>
      <trkpt lat="37.650996" lon="-77.584322">
        <ele>80.88458</ele>
        <time>2026-05-03T14:19:34.000Z</time>
      </trkpt>
      <trkpt lat="37.651066" lon="-77.584606">
        <ele>80.924904</ele>
        <time>2026-05-03T14:19:37.000Z</time>
      </trkpt>
      <trkpt lat="37.651165" lon="-77.584808">
        <ele>80.908441</ele>
        <time>2026-05-03T14:19:39.000Z</time>
      </trkpt>
      <trkpt lat="37.651332" lon="-77.585055">
        <ele>80.634598</ele>
        <time>2026-05-03T14:19:42.000Z</time>
      </trkpt>
      <trkpt lat="37.651393" lon="-77.58524">
        <ele>80.480977</ele>
        <time>2026-05-03T14:19:44.000Z</time>
      </trkpt>
      <trkpt lat="37.651404" lon="-77.585396">
        <ele>80.350687</ele>
        <time>2026-05-03T14:19:45.000Z</time>
      </trkpt>
      <trkpt lat="37.651619" lon="-77.585368">
        <ele>80.14164</ele>
        <time>2026-05-03T14:19:47.000Z</time>
      </trkpt>
      <trkpt lat="37.651772" lon="-77.585354">
        <ele>79.970543</ele>
        <time>2026-05-03T14:19:49.000Z</time>
      </trkpt>
      <trkpt lat="37.652095" lon="-77.585295">
        <ele>79.640047</ele>
        <time>2026-05-03T14:19:53.000Z</time>
      </trkpt>
      <trkpt lat="37.652713" lon="-77.58502">
        <ele>79.16079</ele>
        <time>2026-05-03T14:20:00.000Z</time>
      </trkpt>
      <trkpt lat="37.653226" lon="-77.584797">
        <ele>79.327721</ele>
        <time>2026-05-03T14:20:06.000Z</time>
      </trkpt>
      <trkpt lat="37.653258" lon="-77.584772">
        <ele>79.337548</ele>
        <time>2026-05-03T14:20:06.000Z</time>
      </trkpt>
      <trkpt lat="37.654083" lon="-77.584406">
        <ele>79.607178</ele>
        <time>2026-05-03T14:20:16.000Z</time>
      </trkpt>
      <trkpt lat="37.654307" lon="-77.584314">
        <ele>79.687142</ele>
        <time>2026-05-03T14:20:19.000Z</time>
      </trkpt>
      <trkpt lat="37.654521" lon="-77.584277">
        <ele>79.814768</ele>
        <time>2026-05-03T14:20:21.000Z</time>
      </trkpt>
      <trkpt lat="37.654673" lon="-77.584296">
        <ele>79.896811</ele>
        <time>2026-05-03T14:20:23.000Z</time>
      </trkpt>
      <trkpt lat="37.654823" lon="-77.584384">
        <ele>79.996592</ele>
        <time>2026-05-03T14:20:25.000Z</time>
      </trkpt>
      <trkpt lat="37.654999" lon="-77.584506">
        <ele>80.107299</ele>
        <time>2026-05-03T14:20:27.000Z</time>
      </trkpt>
      <trkpt lat="37.655133" lon="-77.584698">
        <ele>80.222479</ele>
        <time>2026-05-03T14:20:29.000Z</time>
      </trkpt>
      <trkpt lat="37.655328" lon="-77.584962">
        <ele>80.385883</ele>
        <time>2026-05-03T14:20:32.000Z</time>
      </trkpt>
      <trkpt lat="37.655413" lon="-77.585018">
        <ele>80.442249</ele>
        <time>2026-05-03T14:20:33.000Z</time>
      </trkpt>
      <trkpt lat="37.655556" lon="-77.585031">
        <ele>80.524569</ele>
        <time>2026-05-03T14:20:35.000Z</time>
      </trkpt>
      <trkpt lat="37.655697" lon="-77.584927">
        <ele>80.614381</ele>
        <time>2026-05-03T14:20:37.000Z</time>
      </trkpt>
      <trkpt lat="37.656099" lon="-77.584471">
        <ele>80.622842</ele>
        <time>2026-05-03T14:20:43.000Z</time>
      </trkpt>
      <trkpt lat="37.656713" lon="-77.583811">
        <ele>80.463965</ele>
        <time>2026-05-03T14:20:52.000Z</time>
      </trkpt>
      <trkpt lat="37.656783" lon="-77.583739">
        <ele>80.442007</ele>
        <time>2026-05-03T14:20:53.000Z</time>
      </trkpt>
      <trkpt lat="37.656785" lon="-77.583723">
        <ele>80.441241</ele>
        <time>2026-05-03T14:20:53.000Z</time>
      </trkpt>
      <trkpt lat="37.656886" lon="-77.583613">
        <ele>80.414498</ele>
        <time>2026-05-03T14:20:54.000Z</time>
      </trkpt>
      <trkpt lat="37.657053" lon="-77.583499">
        <ele>80.37702</ele>
        <time>2026-05-03T14:20:56.000Z</time>
      </trkpt>
      <trkpt lat="37.657129" lon="-77.583469">
        <ele>80.359726</ele>
        <time>2026-05-03T14:20:57.000Z</time>
      </trkpt>
      <trkpt lat="37.657564" lon="-77.583487">
        <ele>80.063369</ele>
        <time>2026-05-03T14:21:02.000Z</time>
      </trkpt>
      <trkpt lat="37.657684" lon="-77.583419">
        <ele>79.939573</ele>
        <time>2026-05-03T14:21:03.000Z</time>
      </trkpt>
      <trkpt lat="37.657756" lon="-77.583293">
        <ele>79.833653</ele>
        <time>2026-05-03T14:21:04.000Z</time>
      </trkpt>
      <trkpt lat="37.657776" lon="-77.583205">
        <ele>79.774849</ele>
        <time>2026-05-03T14:21:05.000Z</time>
      </trkpt>
      <trkpt lat="37.657816" lon="-77.582846">
        <ele>79.539501</ele>
        <time>2026-05-03T14:21:08.000Z</time>
      </trkpt>
      <trkpt lat="37.657827" lon="-77.582513">
        <ele>79.310465</ele>
        <time>2026-05-03T14:21:11.000Z</time>
      </trkpt>
      <trkpt lat="37.65787" lon="-77.581914">
        <ele>78.900142</ele>
        <time>2026-05-03T14:21:16.000Z</time>
      </trkpt>
      <trkpt lat="37.657885" lon="-77.58147">
        <ele>78.540867</ele>
        <time>2026-05-03T14:21:20.000Z</time>
      </trkpt>
      <trkpt lat="37.65792" lon="-77.580773">
        <ele>77.888092</ele>
        <time>2026-05-03T14:21:26.000Z</time>
      </trkpt>
      <trkpt lat="37.657894" lon="-77.580612">
        <ele>77.742993</ele>
        <time>2026-05-03T14:21:27.000Z</time>
      </trkpt>
      <trkpt lat="37.657826" lon="-77.580475">
        <ele>77.592567</ele>
        <time>2026-05-03T14:21:28.000Z</time>
      </trkpt>
      <trkpt lat="37.65755" lon="-77.579962">
        <ele>77.022539</ele>
        <time>2026-05-03T14:21:33.000Z</time>
      </trkpt>
      <trkpt lat="37.657494" lon="-77.579993">
        <ele>76.945524</ele>
        <time>2026-05-03T14:21:34.000Z</time>
      </trkpt>
      <trkpt lat="37.657412" lon="-77.579924">
        <ele>76.833857</ele>
        <time>2026-05-03T14:21:35.000Z</time>
      </trkpt>
      <trkpt lat="37.657418" lon="-77.579797">
        <ele>76.727456</ele>
        <time>2026-05-03T14:21:36.000Z</time>
      </trkpt>
      <trkpt lat="37.657498" lon="-77.579754">
        <ele>76.636338</ele>
        <time>2026-05-03T14:21:37.000Z</time>
      </trkpt>
      <trkpt lat="37.657758" lon="-77.579414">
        <ele>76.274339</ele>
        <time>2026-05-03T14:21:41.000Z</time>
      </trkpt>
      <trkpt lat="37.65781" lon="-77.579284">
        <ele>76.159488</ele>
        <time>2026-05-03T14:21:42.000Z</time>
      </trkpt>
      <trkpt lat="37.657879" lon="-77.578943">
        <ele>75.894279</ele>
        <time>2026-05-03T14:21:45.000Z</time>
      </trkpt>
      <trkpt lat="37.657955" lon="-77.578803">
        <ele>75.766357</ele>
        <time>2026-05-03T14:21:46.000Z</time>
      </trkpt>
      <trkpt lat="37.657853" lon="-77.578467">
        <ele>75.502056</ele>
        <time>2026-05-03T14:21:49.000Z</time>
      </trkpt>
      <trkpt lat="37.657666" lon="-77.578042">
        <ele>75.12358</ele>
        <time>2026-05-03T14:21:53.000Z</time>
      </trkpt>
      <trkpt lat="37.65761" lon="-77.577915">
        <ele>75.021118</ele>
        <time>2026-05-03T14:21:54.000Z</time>
      </trkpt>
      <trkpt lat="37.657471" lon="-77.577618">
        <ele>74.977234</ele>
        <time>2026-05-03T14:21:57.000Z</time>
      </trkpt>
      <trkpt lat="37.657476" lon="-77.577609">
        <ele>74.976151</ele>
        <time>2026-05-03T14:21:57.000Z</time>
      </trkpt>
      <trkpt lat="37.657445" lon="-77.577545">
        <ele>74.969478</ele>
        <time>2026-05-03T14:21:58.000Z</time>
      </trkpt>
      <trkpt lat="37.657136" lon="-77.576907">
        <ele>74.904701</ele>
        <time>2026-05-03T14:22:05.000Z</time>
      </trkpt>
      <trkpt lat="37.657438" lon="-77.577541">
        <ele>74.839953</ele>
        <time>2026-05-03T14:22:12.000Z</time>
      </trkpt>
      <trkpt lat="37.657477" lon="-77.577623">
        <ele>74.833272</ele>
        <time>2026-05-03T14:22:13.000Z</time>
      </trkpt>
      <trkpt lat="37.657466" lon="-77.577623">
        <ele>74.832183</ele>
        <time>2026-05-03T14:22:13.000Z</time>
      </trkpt>
      <trkpt lat="37.657608" lon="-77.577914">
        <ele>74.817812</ele>
        <time>2026-05-03T14:22:16.000Z</time>
      </trkpt>
      <trkpt lat="37.657666" lon="-77.578038">
        <ele>74.829675</ele>
        <time>2026-05-03T14:22:17.000Z</time>
      </trkpt>
      <trkpt lat="37.657859" lon="-77.57846">
        <ele>74.873499</ele>
        <time>2026-05-03T14:22:21.000Z</time>
      </trkpt>
      <trkpt lat="37.657938" lon="-77.578787">
        <ele>74.904105</ele>
        <time>2026-05-03T14:22:24.000Z</time>
      </trkpt>
      <trkpt lat="37.658215" lon="-77.578891">
        <ele>74.935658</ele>
        <time>2026-05-03T14:22:27.000Z</time>
      </trkpt>
      <trkpt lat="37.658315" lon="-77.578952">
        <ele>74.947732</ele>
        <time>2026-05-03T14:22:28.000Z</time>
      </trkpt>
      <trkpt lat="37.658384" lon="-77.579032">
        <ele>74.959151</ele>
        <time>2026-05-03T14:22:29.000Z</time>
      </trkpt>
      <trkpt lat="37.658616" lon="-77.579138">
        <ele>74.984688</ele>
        <time>2026-05-03T14:22:32.000Z</time>
      </trkpt>
      <trkpt lat="37.658857" lon="-77.579244">
        <ele>75.018642</ele>
        <time>2026-05-03T14:22:35.000Z</time>
      </trkpt>
      <trkpt lat="37.659204" lon="-77.579289">
        <ele>75.099585</ele>
        <time>2026-05-03T14:22:39.000Z</time>
      </trkpt>
      <trkpt lat="37.659334" lon="-77.579239">
        <ele>75.132382</ele>
        <time>2026-05-03T14:22:41.000Z</time>
      </trkpt>
      <trkpt lat="37.659644" lon="-77.57905">
        <ele>75.218237</ele>
        <time>2026-05-03T14:22:45.000Z</time>
      </trkpt>
      <trkpt lat="37.660036" lon="-77.578852">
        <ele>75.318607</ele>
        <time>2026-05-03T14:22:50.000Z</time>
      </trkpt>
      <trkpt lat="37.660301" lon="-77.578705">
        <ele>75.387793</ele>
        <time>2026-05-03T14:22:53.000Z</time>
      </trkpt>
      <trkpt lat="37.660531" lon="-77.578601">
        <ele>75.4445654013</ele>
        <time>2026-05-03T14:22:56.000Z</time>
      </trkpt>
      <trkpt lat="37.660703" lon="-77.578601">
        <ele>75.484537509</ele>
        <time>2026-05-03T14:22:58.000Z</time>
      </trkpt>
      <trkpt lat="37.661098" lon="-77.578716">
        <ele>75.5787404839</ele>
        <time>2026-05-03T14:23:03.000Z</time>
      </trkpt>
      <trkpt lat="37.661115" lon="-77.578552">
        <ele>75.6091697118</ele>
        <time>2026-05-03T14:23:04.000Z</time>
      </trkpt>
      <trkpt lat="37.662053" lon="-77.577351">
        <ele>75.9195530261</ele>
        <time>2026-05-03T14:23:19.000Z</time>
      </trkpt>
    </trkseg>
  </trk>
</gpx>

<!--
Performance optimized by W3 Total Cache. Learn more: https://www.boldgrid.com/w3-total-cache/?utm_source=w3tc&utm_medium=footer_comment&utm_campaign=free_plugin

Page Caching using Disk: Enhanced{w3tc_pagecache_reject_reason} 

Served from: www.aquabike.world @ 2026-05-06 01:59:34 by W3 Total Cache
-->